createdAt,value
2018-10-21T00:00:12.037Z,97.00
2018-10-21T00:02:40.307Z,97.00
2018-10-21T00:05:09.669Z,97.00
2018-10-21T00:07:37.985Z,97.00
2018-10-21T00:10:07.498Z,97.00
2018-10-21T00:12:35.832Z,97.00
2018-10-21T00:15:04.177Z,97.00
2018-10-21T00:17:32.469Z,97.00
2018-10-21T00:20:00.749Z,97.00
2018-10-21T00:22:29.120Z,97.00
2018-10-21T00:24:57.464Z,97.00
2018-10-21T00:27:25.728Z,97.00
2018-10-21T00:29:54.092Z,97.00
2018-10-21T00:32:26.888Z,97.00
2018-10-21T00:34:55.200Z,97.00
2018-10-21T00:37:23.520Z,97.00
2018-10-21T00:39:51.843Z,97.00
2018-10-21T00:42:20.093Z,97.00
2018-10-21T00:44:48.376Z,97.00
2018-10-21T00:47:16.677Z,97.00
2018-10-21T00:49:44.969Z,97.00
2018-10-21T00:52:13.249Z,97.00
2018-10-21T00:54:41.536Z,97.00
2018-10-21T00:57:09.888Z,97.00
2018-10-21T00:59:38.116Z,97.00
2018-10-21T01:02:06.568Z,97.00
2018-10-21T01:04:34.884Z,97.00
2018-10-21T01:07:03.149Z,97.00
2018-10-21T01:09:31.468Z,97.00
2018-10-21T01:12:02.089Z,97.00
2018-10-21T01:14:30.432Z,97.00
2018-10-21T01:16:58.737Z,97.00
2018-10-21T01:19:27.013Z,97.00
2018-10-21T01:21:55.272Z,97.00
2018-10-21T01:24:23.857Z,97.00
2018-10-21T01:26:52.129Z,97.00
2018-10-21T01:29:20.384Z,97.00
2018-10-21T01:31:48.649Z,97.00
2018-10-21T01:34:20.467Z,97.00
2018-10-21T01:36:48.951Z,97.00
2018-10-21T01:39:21.281Z,97.00
2018-10-21T01:41:49.578Z,97.00
2018-10-21T01:44:17.848Z,97.00
2018-10-21T01:46:50.018Z,97.00
2018-10-21T01:49:18.309Z,97.00
2018-10-21T01:51:46.574Z,97.00
2018-10-21T01:54:14.849Z,97.00
2018-10-21T01:56:43.149Z,97.00
2018-10-21T01:59:11.456Z,97.00
2018-10-21T02:01:39.781Z,97.00
2018-10-21T02:04:08.057Z,97.00
2018-10-21T02:06:36.324Z,97.00
2018-10-21T02:09:05.993Z,97.00
2018-10-21T02:11:34.257Z,97.00
2018-10-21T02:14:02.679Z,97.00
2018-10-21T02:16:30.956Z,97.00
2018-10-21T02:18:59.225Z,97.00
2018-10-21T02:21:27.512Z,97.00
2018-10-21T02:23:55.800Z,97.00
2018-10-21T02:26:24.179Z,97.00
2018-10-21T02:28:52.561Z,97.00
2018-10-21T02:31:20.897Z,97.00
2018-10-21T02:33:49.168Z,97.00
2018-10-21T02:36:17.513Z,97.00
2018-10-21T02:38:45.865Z,97.00
2018-10-21T02:41:40.990Z,97.00
2018-10-21T02:44:10.500Z,97.00
2018-10-21T02:46:39.370Z,97.00
2018-10-21T02:49:08.428Z,97.00
2018-10-21T02:51:36.766Z,97.00
2018-10-21T02:54:05.764Z,97.00
2018-10-21T02:56:34.085Z,97.00
2018-10-21T02:59:02.419Z,97.00
2018-10-21T03:01:30.730Z,97.00
2018-10-21T03:03:59.053Z,97.00
2018-10-21T03:06:27.405Z,97.00
2018-10-21T03:08:55.804Z,97.00
2018-10-21T03:11:24.217Z,97.00
2018-10-21T03:13:52.478Z,97.00
2018-10-21T03:16:20.777Z,97.00
2018-10-21T03:18:49.096Z,97.00
2018-10-21T03:21:17.457Z,97.00
2018-10-21T03:23:45.717Z,97.00
2018-10-21T03:26:14.236Z,97.00
2018-10-21T03:28:42.775Z,97.00
2018-10-21T03:31:11.120Z,97.00
2018-10-21T03:33:39.539Z,97.00
2018-10-21T03:36:07.681Z,97.00
2018-10-21T03:38:35.973Z,97.00
2018-10-21T03:41:04.274Z,97.00
2018-10-21T03:43:32.682Z,97.00
2018-10-21T03:46:01.202Z,97.00
2018-10-21T03:48:29.584Z,97.00
2018-10-21T03:50:58.438Z,97.00
2018-10-21T03:53:28.081Z,97.00
2018-10-21T03:55:56.641Z,97.00
2018-10-21T03:58:25.127Z,97.00
2018-10-21T04:00:53.625Z,97.00
2018-10-21T04:03:22.013Z,97.00
2018-10-21T04:05:50.488Z,97.00
2018-10-21T04:08:18.952Z,97.00
2018-10-21T04:10:47.290Z,97.00
2018-10-21T04:13:15.569Z,97.00
2018-10-21T04:15:43.848Z,97.00
2018-10-21T04:18:12.164Z,97.00
2018-10-21T04:20:40.433Z,97.00
2018-10-21T04:23:08.741Z,97.00
2018-10-21T04:25:37.976Z,97.00
2018-10-21T04:28:06.980Z,97.00
2018-10-21T04:30:37.291Z,97.00
2018-10-21T04:34:13.844Z,97.00
2018-10-21T04:36:42.060Z,97.00
2018-10-21T04:39:21.476Z,97.00
2018-10-21T04:41:49.753Z,97.00
2018-10-21T04:44:18.040Z,97.00
2018-10-21T04:46:46.426Z,97.00
2018-10-21T04:49:14.649Z,97.00
2018-10-21T04:51:42.948Z,97.00
2018-10-21T04:54:11.336Z,97.00
2018-10-21T04:56:39.601Z,97.00
2018-10-21T04:59:07.843Z,97.00
2018-10-21T05:01:36.120Z,97.00
2018-10-21T05:04:04.502Z,97.00
2018-10-21T05:06:32.740Z,97.00
2018-10-21T05:09:01.057Z,97.00
2018-10-21T05:11:29.336Z,97.00
2018-10-21T05:13:57.649Z,97.00
2018-10-21T05:16:25.989Z,97.00
2018-10-21T05:18:54.269Z,97.00
2018-10-21T05:21:22.594Z,97.00
2018-10-21T05:23:51.133Z,97.00
2018-10-21T05:26:19.439Z,97.00
2018-10-21T05:28:47.701Z,97.00
2018-10-21T05:31:16.032Z,97.00
2018-10-21T05:33:44.372Z,97.00
2018-10-21T05:36:12.664Z,97.00
2018-10-21T05:38:40.941Z,97.00
2018-10-21T05:41:09.256Z,97.00
2018-10-21T05:43:37.500Z,97.00
2018-10-21T05:46:05.902Z,97.00
2018-10-21T05:48:34.137Z,97.00
2018-10-21T05:51:02.538Z,97.00
2018-10-21T05:53:30.809Z,97.00
2018-10-21T05:55:59.192Z,97.00
2018-10-21T05:58:27.529Z,97.00
2018-10-21T06:00:57.122Z,97.00
2018-10-21T06:03:27.003Z,97.00
2018-10-21T06:05:55.348Z,97.00
2018-10-21T06:08:27.477Z,97.00
2018-10-21T06:10:56.052Z,97.00
2018-10-21T06:13:24.718Z,97.00
2018-10-21T06:15:53.060Z,97.00
2018-10-21T06:18:23.551Z,97.00
2018-10-21T06:20:54.101Z,97.00
2018-10-21T06:23:22.476Z,97.00
2018-10-21T06:25:50.753Z,97.00
2018-10-21T06:28:19.119Z,97.00
2018-10-21T06:30:47.424Z,97.00
2018-10-21T06:33:15.815Z,97.00
2018-10-21T06:35:44.189Z,97.00
2018-10-21T06:38:12.520Z,97.00
2018-10-21T06:40:40.860Z,97.00
2018-10-21T06:43:09.231Z,97.00
2018-10-21T06:45:37.530Z,97.00
2018-10-21T06:48:05.887Z,97.00
2018-10-21T06:50:34.225Z,97.00
2018-10-21T06:53:02.557Z,97.00
2018-10-21T06:55:30.841Z,97.00
2018-10-21T06:57:59.142Z,97.00
2018-10-21T07:00:27.553Z,97.00
2018-10-21T07:02:55.845Z,97.00
2018-10-21T07:05:35.636Z,97.00
2018-10-21T07:08:03.945Z,97.00
2018-10-21T07:10:32.269Z,97.00
2018-10-21T07:13:00.601Z,97.00
2018-10-21T07:15:29.031Z,97.00
2018-10-21T07:17:57.365Z,97.00
2018-10-21T07:20:26.841Z,97.00
2018-10-21T07:22:55.597Z,97.00
2018-10-21T07:25:23.914Z,97.00
2018-10-21T07:27:52.445Z,97.00
2018-10-21T07:30:20.837Z,97.00
2018-10-21T07:32:49.224Z,97.00
2018-10-21T07:35:17.667Z,97.00
2018-10-21T07:37:46.017Z,97.00
2018-10-21T07:40:14.375Z,97.00
2018-10-21T07:42:42.897Z,97.00
2018-10-21T07:45:11.414Z,97.00
2018-10-21T07:47:39.778Z,97.00
2018-10-21T07:50:08.119Z,97.00
2018-10-21T07:52:36.461Z,97.00
2018-10-21T07:55:04.835Z,97.00
2018-10-21T07:57:33.125Z,97.00
2018-10-21T08:00:01.438Z,97.00
2018-10-21T08:02:29.799Z,97.00
2018-10-21T08:04:58.149Z,97.00
2018-10-21T08:07:37.731Z,97.00
2018-10-21T08:10:06.208Z,97.00
2018-10-21T08:12:34.519Z,97.00
2018-10-21T08:15:02.903Z,97.00
2018-10-21T08:17:31.206Z,97.00
2018-10-21T08:19:59.793Z,97.00
2018-10-21T08:22:28.131Z,97.00
2018-10-21T08:24:56.443Z,97.00
2018-10-21T08:27:24.969Z,97.00
2018-10-21T08:29:53.262Z,96.60
2018-10-21T08:32:21.597Z,95.30
2018-10-21T08:34:49.901Z,94.10
2018-10-21T08:37:18.257Z,94.00
2018-10-21T08:39:46.661Z,93.50
2018-10-21T08:42:14.997Z,93.10
2018-10-21T08:44:43.333Z,92.40
2018-10-21T08:47:11.753Z,91.60
2018-10-21T08:49:40.159Z,92.40
2018-10-21T08:52:09.396Z,93.70
2018-10-21T08:54:37.702Z,93.90
2018-10-21T08:57:06.358Z,93.00
2018-10-21T08:59:34.749Z,92.90
2018-10-21T09:02:03.203Z,93.20
2018-10-21T09:04:31.586Z,92.20
2018-10-21T09:06:59.914Z,92.30
2018-10-21T09:09:28.546Z,90.70
2018-10-21T09:11:56.910Z,90.30
2018-10-21T09:14:25.315Z,90.60
2018-10-21T09:16:53.692Z,89.70
2018-10-21T09:19:22.009Z,88.80
2018-10-21T09:21:50.362Z,87.60
2018-10-21T09:24:18.809Z,87.00
2018-10-21T09:26:47.168Z,86.80
2018-10-21T09:29:15.505Z,87.50
2018-10-21T09:31:43.861Z,87.30
2018-10-21T09:34:12.246Z,87.80
2018-10-21T09:36:40.567Z,87.40
2018-10-21T09:39:11.580Z,86.90
2018-10-21T09:41:39.853Z,87.10
2018-10-21T09:44:09.049Z,87.40
2018-10-21T09:46:37.356Z,87.30
2018-10-21T09:49:06.174Z,86.50
2018-10-21T09:51:34.625Z,87.30
2018-10-21T09:54:02.901Z,87.30
2018-10-21T09:56:31.179Z,87.00
2018-10-21T09:58:59.463Z,86.20
2018-10-21T10:01:33.226Z,86.60
2018-10-21T10:04:01.595Z,86.70
2018-10-21T10:06:29.816Z,86.00
2018-10-21T10:08:58.094Z,86.00
2018-10-21T10:11:26.369Z,86.50
2018-10-21T10:13:54.666Z,86.40
2018-10-21T10:16:22.920Z,86.70
2018-10-21T10:18:51.257Z,87.50
2018-10-21T10:21:19.544Z,87.90
2018-10-21T10:23:47.855Z,87.30
2018-10-21T10:26:16.141Z,87.20
2018-10-21T10:28:44.416Z,87.40
2018-10-21T10:31:12.826Z,87.00
2018-10-21T10:33:41.112Z,87.60
2018-10-21T10:36:09.421Z,87.70
2018-10-21T10:38:37.731Z,87.30
2018-10-21T10:41:06.162Z,87.70
2018-10-21T10:43:34.448Z,87.60
2018-10-21T10:46:02.788Z,86.90
2018-10-21T10:48:31.117Z,86.70
2018-10-21T10:50:59.400Z,86.60
2018-10-21T10:53:27.652Z,86.20
2018-10-21T10:55:55.965Z,86.60
2018-10-21T10:58:24.278Z,86.50
2018-10-21T11:00:52.619Z,87.10
2018-10-21T11:03:20.921Z,87.90
2018-10-21T11:05:49.173Z,88.80
2018-10-21T11:08:17.549Z,89.40
2018-10-21T11:10:45.836Z,90.30
2018-10-21T11:13:14.181Z,91.00
2018-10-21T11:15:42.450Z,91.30
2018-10-21T11:18:10.847Z,91.50
2018-10-21T11:20:39.118Z,91.60
2018-10-21T11:23:07.673Z,91.70
2018-10-21T11:25:35.953Z,92.10
2018-10-21T11:28:04.664Z,92.40
2018-10-21T11:30:33.001Z,92.70
2018-10-21T11:33:01.305Z,93.00
2018-10-21T11:35:29.682Z,92.60
2018-10-21T11:37:57.977Z,93.10
2018-10-21T11:40:26.262Z,92.50
2018-10-21T11:42:54.693Z,92.20
2018-10-21T11:45:23.072Z,91.50
2018-10-21T11:47:51.369Z,91.40
2018-10-21T11:50:19.725Z,91.90
2018-10-21T11:52:48.029Z,92.30
2018-10-21T11:55:16.382Z,91.60
2018-10-21T11:57:44.667Z,91.60
2018-10-21T12:00:12.963Z,92.10
2018-10-21T12:02:41.242Z,91.50
2018-10-21T12:05:09.521Z,89.40
2018-10-21T12:07:37.788Z,87.70
2018-10-21T12:10:06.543Z,86.70
2018-10-21T12:12:34.809Z,86.00
2018-10-21T12:15:03.251Z,86.70
2018-10-21T12:17:31.622Z,84.70
2018-10-21T12:19:59.998Z,84.80
2018-10-21T12:22:28.274Z,84.70
2018-10-21T12:24:56.534Z,82.90
2018-10-21T12:27:24.865Z,81.90
2018-10-21T12:29:53.161Z,81.40
2018-10-21T12:32:21.412Z,80.20
2018-10-21T12:34:49.672Z,78.90
2018-10-21T12:37:17.958Z,78.00
2018-10-21T12:39:46.212Z,77.80
2018-10-21T12:42:14.532Z,76.70
2018-10-21T12:44:42.849Z,75.70
2018-10-21T12:47:11.210Z,74.80
2018-10-21T12:49:39.429Z,75.50
2018-10-21T12:52:07.784Z,75.50
2018-10-21T12:54:36.117Z,76.50
2018-10-21T12:57:04.405Z,76.60
2018-10-21T12:59:32.757Z,76.50
2018-10-21T13:02:01.038Z,76.20
2018-10-21T13:04:29.319Z,75.00
2018-10-21T13:06:57.666Z,74.70
2018-10-21T13:09:25.932Z,74.70
2018-10-21T13:11:54.262Z,75.00
2018-10-21T13:14:22.538Z,75.60
2018-10-21T13:16:50.837Z,74.90
2018-10-21T13:19:19.114Z,74.70
2018-10-21T13:21:47.408Z,74.50
2018-10-21T13:24:15.776Z,73.80
2018-10-21T13:26:44.073Z,72.60
2018-10-21T13:29:12.329Z,71.40
2018-10-21T13:31:40.596Z,70.70
2018-10-21T13:34:08.932Z,71.20
2018-10-21T13:36:37.750Z,71.20
2018-10-21T13:39:09.065Z,71.00
2018-10-21T13:41:37.476Z,71.30
2018-10-21T13:44:05.796Z,71.90
2018-10-21T13:46:34.103Z,72.10
2018-10-21T13:49:02.540Z,72.50
2018-10-21T13:51:30.898Z,73.60
2018-10-21T13:53:59.216Z,73.40
2018-10-21T13:56:27.664Z,72.50
2018-10-21T13:58:56.092Z,72.00
2018-10-21T14:01:24.584Z,71.70
2018-10-21T14:03:52.937Z,71.30
2018-10-21T14:06:21.269Z,71.80
2018-10-21T14:08:49.547Z,71.30
2018-10-21T14:11:17.913Z,70.60
2018-10-21T14:13:46.216Z,69.90
2018-10-21T14:16:14.623Z,70.40
2018-10-21T14:18:42.845Z,70.10
2018-10-21T14:21:11.109Z,70.40
2018-10-21T14:23:39.446Z,70.50
2018-10-21T14:26:07.750Z,70.50
2018-10-21T14:28:36.109Z,70.00
2018-10-21T14:31:04.562Z,69.80
2018-10-21T14:33:32.981Z,69.80
2018-10-21T14:36:01.307Z,70.10
2018-10-21T14:38:29.810Z,70.40
2018-10-21T14:40:58.125Z,70.40
2018-10-21T14:43:26.462Z,70.50
2018-10-21T14:45:54.922Z,71.00
2018-10-21T14:48:23.099Z,71.30
2018-10-21T14:50:51.464Z,72.10
2018-10-21T14:53:19.740Z,72.70
2018-10-21T14:55:48.049Z,73.00
2018-10-21T14:58:16.384Z,74.40
2018-10-21T15:00:44.768Z,74.80
2018-10-21T15:03:16.414Z,76.40
2018-10-21T15:05:44.926Z,78.10
2018-10-21T15:08:13.333Z,79.40
2018-10-21T15:10:41.756Z,80.70
2018-10-21T15:13:10.145Z,81.40
2018-10-21T15:15:38.444Z,82.70
2018-10-21T15:18:06.758Z,83.80
2018-10-21T15:20:35.018Z,84.60
2018-10-21T15:23:03.350Z,85.70
2018-10-21T15:25:31.560Z,86.20
2018-10-21T15:28:00.282Z,86.90
2018-10-21T15:30:28.584Z,87.60
2018-10-21T15:32:56.848Z,88.10
2018-10-21T15:35:25.334Z,88.60
2018-10-21T15:37:53.690Z,89.20
2018-10-21T15:40:22.033Z,89.80
2018-10-21T15:42:50.306Z,89.90
2018-10-21T15:45:18.604Z,90.50
2018-10-21T15:47:46.873Z,90.90
2018-10-21T15:50:15.230Z,91.30
2018-10-21T15:52:43.429Z,91.70
2018-10-21T15:55:11.690Z,92.90
2018-10-21T15:57:40.033Z,93.60
2018-10-21T16:00:10.211Z,94.40
2018-10-21T16:02:38.590Z,95.10
2018-10-21T16:05:07.521Z,95.80
2018-10-21T16:07:35.785Z,96.50
2018-10-21T16:10:04.073Z,96.90
2018-10-21T16:12:32.345Z,97.00
2018-10-21T16:15:00.596Z,97.00
2018-10-21T16:17:28.884Z,97.00
2018-10-21T16:19:57.183Z,97.00
2018-10-21T16:22:25.605Z,97.00
2018-10-21T16:24:53.852Z,97.00
2018-10-21T16:27:22.146Z,97.00
2018-10-21T16:29:50.430Z,97.00
2018-10-21T16:32:18.774Z,97.00
2018-10-21T16:34:47.037Z,97.00
2018-10-21T16:37:15.455Z,97.00
2018-10-21T16:39:43.705Z,97.00
2018-10-21T16:42:12.340Z,97.00
2018-10-21T16:44:40.721Z,97.00
2018-10-21T16:47:09.041Z,97.00
2018-10-21T16:49:37.326Z,97.00
2018-10-21T16:52:05.654Z,97.00
2018-10-21T16:54:34.782Z,97.00
2018-10-21T16:57:03.150Z,97.00
2018-10-21T16:59:31.507Z,97.00
2018-10-21T17:01:59.809Z,97.00
2018-10-21T17:04:28.077Z,97.00
2018-10-21T17:06:56.401Z,97.00
2018-10-21T17:09:24.793Z,97.00
2018-10-21T17:11:52.936Z,97.00
2018-10-21T17:14:21.185Z,97.00
2018-10-21T17:16:49.531Z,97.00
2018-10-21T17:19:17.847Z,97.00
2018-10-21T17:21:46.040Z,97.00
2018-10-21T17:24:14.481Z,97.00
2018-10-21T17:26:42.725Z,97.00
2018-10-21T17:29:11.120Z,97.00
2018-10-21T17:31:39.397Z,97.00
2018-10-21T17:34:07.781Z,97.00
2018-10-21T17:36:36.204Z,97.00
2018-10-21T17:42:07.671Z,97.00
2018-10-21T17:44:36.001Z,97.00
2018-10-21T17:47:04.407Z,97.00
2018-10-21T17:49:32.754Z,97.00
2018-10-21T17:52:01.128Z,97.00
2018-10-21T17:54:29.456Z,97.00
2018-10-21T17:56:58.856Z,97.00
2018-10-21T17:59:27.817Z,97.00
2018-10-21T18:01:56.840Z,97.00
2018-10-21T18:04:25.721Z,97.00
2018-10-21T18:06:54.041Z,97.00
2018-10-21T18:09:22.300Z,97.00
2018-10-21T18:11:50.628Z,97.00
2018-10-21T18:14:18.921Z,97.00
2018-10-21T18:16:47.160Z,97.00
2018-10-21T18:19:15.507Z,97.00
2018-10-21T18:21:43.709Z,97.00
2018-10-21T18:24:11.985Z,97.00
2018-10-21T18:26:40.268Z,97.00
2018-10-21T18:29:08.868Z,97.00
2018-10-21T18:31:37.124Z,97.00
2018-10-21T18:34:05.703Z,97.00
2018-10-21T18:36:34.001Z,97.00
2018-10-21T18:39:02.348Z,97.00
2018-10-21T18:41:30.636Z,97.00
2018-10-21T18:43:58.949Z,97.00
2018-10-21T18:46:27.303Z,97.00
2018-10-21T18:48:55.572Z,97.00
2018-10-21T18:51:23.846Z,97.00
2018-10-21T18:53:52.219Z,97.00
2018-10-21T18:56:20.653Z,97.00
2018-10-21T18:58:49.068Z,97.00
2018-10-21T19:01:17.493Z,97.00
2018-10-21T19:03:45.810Z,97.00
2018-10-21T19:06:14.128Z,97.00
2018-10-21T19:08:42.477Z,97.00
2018-10-21T19:11:10.824Z,97.00
2018-10-21T19:13:39.173Z,97.00
2018-10-21T19:16:07.439Z,97.00
2018-10-21T19:18:35.713Z,97.00
2018-10-21T19:21:04.421Z,97.00
2018-10-21T19:23:32.861Z,97.00
2018-10-21T19:26:01.205Z,97.00
2018-10-21T19:28:29.845Z,97.00
2018-10-21T19:30:58.581Z,97.00
2018-10-21T19:33:26.915Z,97.00
2018-10-21T19:35:55.397Z,97.00
2018-10-21T19:38:24.002Z,97.00
2018-10-21T19:40:52.349Z,97.00
2018-10-21T19:43:20.755Z,97.00
2018-10-21T19:45:49.369Z,97.00
2018-10-21T19:48:18.029Z,97.00
2018-10-21T19:50:46.288Z,97.00
2018-10-21T19:53:14.625Z,97.00
2018-10-21T19:55:42.966Z,97.00
2018-10-21T19:58:11.359Z,97.00
2018-10-21T20:00:39.621Z,97.00
2018-10-21T20:03:07.969Z,97.00
2018-10-21T20:05:36.408Z,97.00
2018-10-21T20:08:04.828Z,97.00
2018-10-21T20:10:33.244Z,97.00
2018-10-21T20:13:01.637Z,97.00
2018-10-21T20:15:29.980Z,97.00
2018-10-21T20:17:58.288Z,97.00
2018-10-21T20:20:26.604Z,97.00
2018-10-21T20:22:54.873Z,97.00
2018-10-21T20:25:23.194Z,97.00
2018-10-21T20:27:51.497Z,97.00
2018-10-21T20:30:19.773Z,97.00
2018-10-21T20:32:48.443Z,97.00
2018-10-21T20:35:16.777Z,97.00
2018-10-21T20:37:45.140Z,97.00
2018-10-21T20:40:13.555Z,97.00
2018-10-21T20:42:41.956Z,97.00
2018-10-21T20:45:11.620Z,97.00
2018-10-21T20:47:39.914Z,97.00
2018-10-21T20:50:08.464Z,97.00
2018-10-21T20:52:36.904Z,97.00
2018-10-21T20:55:05.344Z,97.00
2018-10-21T20:57:33.743Z,97.00
2018-10-21T21:00:02.154Z,97.00
2018-10-21T21:02:30.449Z,97.00
2018-10-21T21:04:58.745Z,97.00
2018-10-21T21:07:27.128Z,97.00
2018-10-21T21:09:55.456Z,97.00
2018-10-21T21:12:23.852Z,97.00
2018-10-21T21:14:52.164Z,97.00
2018-10-21T21:17:20.532Z,97.00
2018-10-21T21:19:48.824Z,97.00
2018-10-21T21:22:17.131Z,97.00
2018-10-21T21:24:45.545Z,97.00
2018-10-21T21:27:13.803Z,97.00
2018-10-21T21:29:42.061Z,97.00
2018-10-21T21:32:10.488Z,97.00
2018-10-21T21:34:38.772Z,97.00
2018-10-21T21:37:07.032Z,97.00
2018-10-21T21:39:35.354Z,97.00
2018-10-21T21:42:03.655Z,97.00
2018-10-21T21:44:31.935Z,97.00
2018-10-21T21:47:00.189Z,97.00
2018-10-21T21:49:28.451Z,97.00
2018-10-21T21:51:56.710Z,97.00
2018-10-21T21:54:25.011Z,97.00
2018-10-21T21:56:53.266Z,97.00
2018-10-21T21:59:21.561Z,97.00
2018-10-21T22:01:49.881Z,97.00
2018-10-21T22:04:18.218Z,97.00
2018-10-21T22:06:46.413Z,97.00
2018-10-21T22:09:14.656Z,97.00
2018-10-21T22:11:42.907Z,97.00
2018-10-21T22:14:11.337Z,97.00
2018-10-21T22:16:39.602Z,97.00
2018-10-21T22:19:08.425Z,97.00
2018-10-21T22:21:37.537Z,97.00
2018-10-21T22:24:06.212Z,97.00
2018-10-21T22:26:34.481Z,97.00
2018-10-21T22:29:02.753Z,97.00
2018-10-21T22:31:31.009Z,97.00
2018-10-21T22:33:59.310Z,97.00
2018-10-21T22:36:27.713Z,97.00
2018-10-21T22:38:55.998Z,97.00
2018-10-21T22:41:24.325Z,97.00
2018-10-21T22:43:52.589Z,97.00
2018-10-21T22:46:20.885Z,97.00
2018-10-21T22:48:49.276Z,97.00
2018-10-21T22:51:17.778Z,97.00
2018-10-21T22:53:46.048Z,97.00
2018-10-21T22:56:14.306Z,97.00
2018-10-21T22:58:42.569Z,97.00
2018-10-21T23:01:10.832Z,97.00
2018-10-21T23:03:39.118Z,97.00
2018-10-21T23:06:07.413Z,97.00
2018-10-21T23:08:35.604Z,97.00
2018-10-21T23:11:03.872Z,97.00
2018-10-21T23:13:32.228Z,97.00
2018-10-21T23:16:00.621Z,97.00
2018-10-21T23:18:28.874Z,97.00
2018-10-21T23:20:57.145Z,97.00
2018-10-21T23:23:25.376Z,97.00
2018-10-21T23:25:53.688Z,97.00
2018-10-21T23:28:21.933Z,97.00
2018-10-21T23:30:50.212Z,97.00
2018-10-21T23:33:18.486Z,97.00
2018-10-21T23:35:46.763Z,97.00
2018-10-21T23:38:15.088Z,97.00
2018-10-21T23:40:43.369Z,97.00
2018-10-21T23:43:11.806Z,97.00
2018-10-21T23:45:40.281Z,97.00
2018-10-21T23:48:08.607Z,97.00
2018-10-21T23:50:36.820Z,97.00
2018-10-21T23:53:05.306Z,97.00
2018-10-21T23:55:33.552Z,97.00
2018-10-21T23:58:01.856Z,97.00
